sensor_id;sensor_type;location;lat;lon;timestamp;temperature;humidity
16578;DHT22;8401;52.528;13.340;2023-08-07T00:01:47;15.30;99.90
16578;DHT22;8401;52.528;13.340;2023-08-07T00:04:13;15.30;99.90
16578;DHT22;8401;52.528;13.340;2023-08-07T00:06:39;15.30;99.90
16578;DHT22;8401;52.528;13.340;2023-08-07T00:09:04;15.30;99.90
16578;DHT22;8401;52.528;13.340;2023-08-07T00:11:30;15.30;99.90
16578;DHT22;8401;52.528;13.340;2023-08-07T00:13:57;15.20;99.90
16578;DHT22;8401;52.528;13.340;2023-08-07T00:16:23;15.20;99.90
16578;DHT22;8401;52.528;13.340;2023-08-07T00:18:48;15.20;99.90
16578;DHT22;8401;52.528;13.340;2023-08-07T00:21:14;15.20;99.90
16578;DHT22;8401;52.528;13.340;2023-08-07T00:23:39;15.20;99.90
16578;DHT22;8401;52.528;13.340;2023-08-07T00:26:05;15.20;99.90
16578;DHT22;8401;52.528;13.340;2023-08-07T00:28:31;15.20;99.90
16578;DHT22;8401;52.528;13.340;2023-08-07T00:30:56;15.20;99.90
16578;DHT22;8401;52.528;13.340;2023-08-07T00:33:22;15.20;99.90
16578;DHT22;8401;52.528;13.340;2023-08-07T00:35:48;15.20;99.90
16578;DHT22;8401;52.528;13.340;2023-08-07T00:38:13;15.20;99.90
16578;DHT22;8401;52.528;13.340;2023-08-07T00:40:40;15.20;99.90
16578;DHT22;8401;52.528;13.340;2023-08-07T00:43:07;15.10;99.90
16578;DHT22;8401;52.528;13.340;2023-08-07T00:45:36;15.10;99.90
16578;DHT22;8401;52.528;13.340;2023-08-07T00:48:04;15.20;99.90
16578;DHT22;8401;52.528;13.340;2023-08-07T00:50:30;15.10;99.90
16578;DHT22;8401;52.528;13.340;2023-08-07T00:52:55;15.10;99.90
16578;DHT22;8401;52.528;13.340;2023-08-07T00:55:21;15.10;99.90
16578;DHT22;8401;52.528;13.340;2023-08-07T00:57:47;15.10;99.90
16578;DHT22;8401;52.528;13.340;2023-08-07T01:00:14;15.10;99.90
16578;DHT22;8401;52.528;13.340;2023-08-07T01:02:40;15.10;99.90
16578;DHT22;8401;52.528;13.340;2023-08-07T01:05:05;15.20;99.90
16578;DHT22;8401;52.528;13.340;2023-08-07T01:07:31;15.10;99.90
16578;DHT22;8401;52.528;13.340;2023-08-07T01:09:57;15.10;99.90
16578;DHT22;8401;52.528;13.340;2023-08-07T01:12:35;15.20;99.90
16578;DHT22;8401;52.528;13.340;2023-08-07T01:15:14;15.20;99.90
16578;DHT22;8401;52.528;13.340;2023-08-07T01:17:42;15.20;99.90
16578;DHT22;8401;52.528;13.340;2023-08-07T01:20:09;15.20;99.90
16578;DHT22;8401;52.528;13.340;2023-08-07T01:22:36;15.20;99.90
16578;DHT22;8401;52.528;13.340;2023-08-07T01:25:02;15.10;99.90
16578;DHT22;8401;52.528;13.340;2023-08-07T01:27:35;15.10;99.90
16578;DHT22;8401;52.528;13.340;2023-08-07T01:30:24;15.20;99.90
16578;DHT22;8401;52.528;13.340;2023-08-07T01:33:11;15.10;99.90
16578;DHT22;8401;52.528;13.340;2023-08-07T01:36:01;15.20;99.90
16578;DHT22;8401;52.528;13.340;2023-08-07T01:38:29;15.20;99.90
16578;DHT22;8401;52.528;13.340;2023-08-07T01:40:56;15.20;99.90
16578;DHT22;8401;52.528;13.340;2023-08-07T01:43:22;15.20;99.90
16578;DHT22;8401;52.528;13.340;2023-08-07T01:45:48;15.20;99.90
16578;DHT22;8401;52.528;13.340;2023-08-07T01:48:14;15.10;99.90
16578;DHT22;8401;52.528;13.340;2023-08-07T01:50:40;15.10;99.90
16578;DHT22;8401;52.528;13.340;2023-08-07T01:53:05;15.10;99.90
16578;DHT22;8401;52.528;13.340;2023-08-07T01:55:31;15.10;99.90
16578;DHT22;8401;52.528;13.340;2023-08-07T01:57:57;15.10;99.90
16578;DHT22;8401;52.528;13.340;2023-08-07T02:00:23;15.00;99.90
16578;DHT22;8401;52.528;13.340;2023-08-07T02:02:48;15.00;99.90
16578;DHT22;8401;52.528;13.340;2023-08-07T02:05:15;15.00;99.90
16578;DHT22;8401;52.528;13.340;2023-08-07T02:07:41;14.90;99.90
16578;DHT22;8401;52.528;13.340;2023-08-07T02:10:07;14.90;99.90
16578;DHT22;8401;52.528;13.340;2023-08-07T02:12:33;14.90;99.90
16578;DHT22;8401;52.528;13.340;2023-08-07T02:14:59;14.90;99.90
16578;DHT22;8401;52.528;13.340;2023-08-07T02:17:28;14.90;99.90
16578;DHT22;8401;52.528;13.340;2023-08-07T02:19:56;14.90;99.90
16578;DHT22;8401;52.528;13.340;2023-08-07T02:22:21;14.90;99.90
16578;DHT22;8401;52.528;13.340;2023-08-07T02:24:47;14.90;99.90
16578;DHT22;8401;52.528;13.340;2023-08-07T02:27:13;14.90;99.90
16578;DHT22;8401;52.528;13.340;2023-08-07T02:29:38;14.90;99.90
16578;DHT22;8401;52.528;13.340;2023-08-07T02:32:04;14.80;99.90
16578;DHT22;8401;52.528;13.340;2023-08-07T02:34:31;14.80;99.90
16578;DHT22;8401;52.528;13.340;2023-08-07T02:36:56;14.90;99.90
16578;DHT22;8401;52.528;13.340;2023-08-07T02:39:22;14.80;99.90
16578;DHT22;8401;52.528;13.340;2023-08-07T02:41:48;14.90;99.90
16578;DHT22;8401;52.528;13.340;2023-08-07T02:44:14;14.90;99.90
16578;DHT22;8401;52.528;13.340;2023-08-07T02:46:39;14.90;99.90
16578;DHT22;8401;52.528;13.340;2023-08-07T02:49:05;14.90;99.90
16578;DHT22;8401;52.528;13.340;2023-08-07T02:51:32;15.00;99.90
16578;DHT22;8401;52.528;13.340;2023-08-07T02:53:57;15.00;99.90
16578;DHT22;8401;52.528;13.340;2023-08-07T02:56:23;15.00;99.90
16578;DHT22;8401;52.528;13.340;2023-08-07T02:58:48;15.00;99.90
16578;DHT22;8401;52.528;13.340;2023-08-07T03:01:14;15.10;99.90
16578;DHT22;8401;52.528;13.340;2023-08-07T03:03:40;15.00;99.90
16578;DHT22;8401;52.528;13.340;2023-08-07T03:06:05;15.00;99.90
16578;DHT22;8401;52.528;13.340;2023-08-07T03:08:31;15.00;99.90
16578;DHT22;8401;52.528;13.340;2023-08-07T03:10:58;15.00;99.90
16578;DHT22;8401;52.528;13.340;2023-08-07T03:13:24;15.00;99.90
16578;DHT22;8401;52.528;13.340;2023-08-07T03:16:01;15.10;99.90
16578;DHT22;8401;52.528;13.340;2023-08-07T03:18:27;15.10;99.90
16578;DHT22;8401;52.528;13.340;2023-08-07T03:20:54;15.10;99.90
16578;DHT22;8401;52.528;13.340;2023-08-07T03:23:21;15.10;99.90
16578;DHT22;8401;52.528;13.340;2023-08-07T03:25:47;15.10;99.90
16578;DHT22;8401;52.528;13.340;2023-08-07T03:28:12;15.10;99.90
16578;DHT22;8401;52.528;13.340;2023-08-07T03:30:38;15.10;99.90
16578;DHT22;8401;52.528;13.340;2023-08-07T03:33:04;15.10;99.90
16578;DHT22;8401;52.528;13.340;2023-08-07T03:35:30;15.10;99.90
16578;DHT22;8401;52.528;13.340;2023-08-07T03:37:55;15.10;99.90
16578;DHT22;8401;52.528;13.340;2023-08-07T03:40:21;15.10;99.90
16578;DHT22;8401;52.528;13.340;2023-08-07T03:42:46;15.10;99.90
16578;DHT22;8401;52.528;13.340;2023-08-07T03:45:13;15.10;99.90
16578;DHT22;8401;52.528;13.340;2023-08-07T03:47:39;15.00;99.90
16578;DHT22;8401;52.528;13.340;2023-08-07T03:50:05;15.10;99.90
16578;DHT22;8401;52.528;13.340;2023-08-07T03:52:31;15.10;99.90
16578;DHT22;8401;52.528;13.340;2023-08-07T03:54:56;15.10;99.90
16578;DHT22;8401;52.528;13.340;2023-08-07T03:57:22;15.10;99.90
16578;DHT22;8401;52.528;13.340;2023-08-07T03:59:48;15.00;99.90
16578;DHT22;8401;52.528;13.340;2023-08-07T04:02:13;15.00;99.90
16578;DHT22;8401;52.528;13.340;2023-08-07T04:04:39;15.10;99.90
16578;DHT22;8401;52.528;13.340;2023-08-07T04:07:05;15.10;99.90
16578;DHT22;8401;52.528;13.340;2023-08-07T04:09:31;15.10;99.90
16578;DHT22;8401;52.528;13.340;2023-08-07T04:11:57;15.10;99.90
16578;DHT22;8401;52.528;13.340;2023-08-07T04:14:23;15.10;99.90
16578;DHT22;8401;52.528;13.340;2023-08-07T04:16:49;15.10;99.90
16578;DHT22;8401;52.528;13.340;2023-08-07T04:19:14;15.10;99.90
16578;DHT22;8401;52.528;13.340;2023-08-07T04:21:40;15.20;99.90
16578;DHT22;8401;52.528;13.340;2023-08-07T04:24:05;15.20;99.90
16578;DHT22;8401;52.528;13.340;2023-08-07T04:26:36;15.20;99.90
16578;DHT22;8401;52.528;13.340;2023-08-07T04:29:02;15.20;99.90
16578;DHT22;8401;52.528;13.340;2023-08-07T04:31:28;15.10;99.90
16578;DHT22;8401;52.528;13.340;2023-08-07T04:33:56;15.10;99.90
16578;DHT22;8401;52.528;13.340;2023-08-07T04:36:22;15.10;99.90
16578;DHT22;8401;52.528;13.340;2023-08-07T04:38:49;15.10;99.90
16578;DHT22;8401;52.528;13.340;2023-08-07T04:41:15;15.10;99.90
16578;DHT22;8401;52.528;13.340;2023-08-07T04:43:41;15.10;99.90
16578;DHT22;8401;52.528;13.340;2023-08-07T04:46:08;15.20;99.90
16578;DHT22;8401;52.528;13.340;2023-08-07T04:48:35;15.10;99.90
16578;DHT22;8401;52.528;13.340;2023-08-07T04:51:02;15.10;99.90
16578;DHT22;8401;52.528;13.340;2023-08-07T04:53:27;15.10;99.90
16578;DHT22;8401;52.528;13.340;2023-08-07T04:55:53;15.20;99.90
16578;DHT22;8401;52.528;13.340;2023-08-07T04:58:19;15.20;99.90
16578;DHT22;8401;52.528;13.340;2023-08-07T05:00:44;15.20;99.90
16578;DHT22;8401;52.528;13.340;2023-08-07T05:03:10;15.20;99.90
16578;DHT22;8401;52.528;13.340;2023-08-07T05:05:36;15.20;99.90
16578;DHT22;8401;52.528;13.340;2023-08-07T05:08:01;15.20;99.90
16578;DHT22;8401;52.528;13.340;2023-08-07T05:10:27;15.30;99.90
16578;DHT22;8401;52.528;13.340;2023-08-07T05:12:53;15.20;99.90
16578;DHT22;8401;52.528;13.340;2023-08-07T05:15:25;15.20;99.90
16578;DHT22;8401;52.528;13.340;2023-08-07T05:17:51;15.20;99.90
16578;DHT22;8401;52.528;13.340;2023-08-07T05:20:17;15.20;99.90
16578;DHT22;8401;52.528;13.340;2023-08-07T05:22:43;15.20;99.90
16578;DHT22;8401;52.528;13.340;2023-08-07T05:25:09;15.10;99.90
16578;DHT22;8401;52.528;13.340;2023-08-07T05:27:36;15.10;99.90
16578;DHT22;8401;52.528;13.340;2023-08-07T05:30:02;15.10;99.90
16578;DHT22;8401;52.528;13.340;2023-08-07T05:32:28;15.10;99.90
16578;DHT22;8401;52.528;13.340;2023-08-07T05:34:54;15.10;99.90
16578;DHT22;8401;52.528;13.340;2023-08-07T05:37:19;15.20;99.90
16578;DHT22;8401;52.528;13.340;2023-08-07T05:39:45;15.20;99.90
16578;DHT22;8401;52.528;13.340;2023-08-07T05:42:11;15.10;99.90
16578;DHT22;8401;52.528;13.340;2023-08-07T05:44:38;15.20;99.90
16578;DHT22;8401;52.528;13.340;2023-08-07T05:47:03;15.20;99.90
16578;DHT22;8401;52.528;13.340;2023-08-07T05:49:29;15.20;99.90
16578;DHT22;8401;52.528;13.340;2023-08-07T05:51:55;15.20;99.90
16578;DHT22;8401;52.528;13.340;2023-08-07T05:54:21;15.30;99.90
16578;DHT22;8401;52.528;13.340;2023-08-07T05:56:46;15.40;99.90
16578;DHT22;8401;52.528;13.340;2023-08-07T05:59:12;15.40;99.90
16578;DHT22;8401;52.528;13.340;2023-08-07T06:01:38;15.50;99.90
16578;DHT22;8401;52.528;13.340;2023-08-07T06:04:03;15.60;99.90
16578;DHT22;8401;52.528;13.340;2023-08-07T06:06:29;15.60;99.90
16578;DHT22;8401;52.528;13.340;2023-08-07T06:08:55;15.60;99.90
16578;DHT22;8401;52.528;13.340;2023-08-07T06:11:21;15.60;99.90
16578;DHT22;8401;52.528;13.340;2023-08-07T06:13:48;15.60;99.90
16578;DHT22;8401;52.528;13.340;2023-08-07T06:16:13;15.70;99.90
16578;DHT22;8401;52.528;13.340;2023-08-07T06:18:39;15.80;99.90
16578;DHT22;8401;52.528;13.340;2023-08-07T06:21:05;15.80;99.90
16578;DHT22;8401;52.528;13.340;2023-08-07T06:23:35;15.90;99.90
16578;DHT22;8401;52.528;13.340;2023-08-07T06:26:01;16.10;99.90
16578;DHT22;8401;52.528;13.340;2023-08-07T06:28:30;16.10;99.90
16578;DHT22;8401;52.528;13.340;2023-08-07T06:31:07;16.00;99.90
16578;DHT22;8401;52.528;13.340;2023-08-07T06:33:33;16.10;99.90
16578;DHT22;8401;52.528;13.340;2023-08-07T06:36:00;16.10;99.90
16578;DHT22;8401;52.528;13.340;2023-08-07T06:38:26;16.20;99.90
16578;DHT22;8401;52.528;13.340;2023-08-07T06:40:51;16.30;99.90
16578;DHT22;8401;52.528;13.340;2023-08-07T06:43:17;16.30;99.90
16578;DHT22;8401;52.528;13.340;2023-08-07T06:45:45;16.40;99.90
16578;DHT22;8401;52.528;13.340;2023-08-07T06:48:11;16.40;99.90
16578;DHT22;8401;52.528;13.340;2023-08-07T06:50:37;16.40;99.90
16578;DHT22;8401;52.528;13.340;2023-08-07T06:53:03;16.50;99.90
16578;DHT22;8401;52.528;13.340;2023-08-07T06:55:28;16.50;99.90
16578;DHT22;8401;52.528;13.340;2023-08-07T06:57:54;16.50;99.90
16578;DHT22;8401;52.528;13.340;2023-08-07T07:00:19;16.50;99.90
16578;DHT22;8401;52.528;13.340;2023-08-07T07:02:45;16.60;99.90
16578;DHT22;8401;52.528;13.340;2023-08-07T07:05:11;16.70;99.90
16578;DHT22;8401;52.528;13.340;2023-08-07T07:07:36;16.70;99.90
16578;DHT22;8401;52.528;13.340;2023-08-07T07:10:02;16.70;99.90
16578;DHT22;8401;52.528;13.340;2023-08-07T07:12:28;16.80;99.90
16578;DHT22;8401;52.528;13.340;2023-08-07T07:14:53;16.90;99.90
16578;DHT22;8401;52.528;13.340;2023-08-07T07:17:19;17.00;99.90
16578;DHT22;8401;52.528;13.340;2023-08-07T07:19:45;17.00;99.90
16578;DHT22;8401;52.528;13.340;2023-08-07T07:22:10;17.20;99.90
16578;DHT22;8401;52.528;13.340;2023-08-07T07:24:36;17.40;99.90
16578;DHT22;8401;52.528;13.340;2023-08-07T07:27:02;17.40;99.90
16578;DHT22;8401;52.528;13.340;2023-08-07T07:29:28;17.50;99.90
16578;DHT22;8401;52.528;13.340;2023-08-07T07:31:54;17.40;99.90
16578;DHT22;8401;52.528;13.340;2023-08-07T07:34:21;17.60;99.90
16578;DHT22;8401;52.528;13.340;2023-08-07T07:36:46;17.70;99.90
16578;DHT22;8401;52.528;13.340;2023-08-07T07:39:12;17.70;99.90
16578;DHT22;8401;52.528;13.340;2023-08-07T07:41:38;17.70;99.90
16578;DHT22;8401;52.528;13.340;2023-08-07T07:44:03;17.60;99.90
16578;DHT22;8401;52.528;13.340;2023-08-07T07:46:29;17.60;99.90
16578;DHT22;8401;52.528;13.340;2023-08-07T07:48:57;17.60;99.90
16578;DHT22;8401;52.528;13.340;2023-08-07T07:51:22;17.60;99.90
16578;DHT22;8401;52.528;13.340;2023-08-07T07:53:48;17.70;99.90
16578;DHT22;8401;52.528;13.340;2023-08-07T07:56:14;18.00;99.90
16578;DHT22;8401;52.528;13.340;2023-08-07T07:58:40;17.80;99.90
16578;DHT22;8401;52.528;13.340;2023-08-07T08:01:06;17.70;99.90
16578;DHT22;8401;52.528;13.340;2023-08-07T08:03:32;17.70;99.90
16578;DHT22;8401;52.528;13.340;2023-08-07T08:05:58;17.80;99.90
16578;DHT22;8401;52.528;13.340;2023-08-07T08:08:24;17.90;99.90
16578;DHT22;8401;52.528;13.340;2023-08-07T08:10:50;18.20;99.90
16578;DHT22;8401;52.528;13.340;2023-08-07T08:13:16;18.30;99.90
16578;DHT22;8401;52.528;13.340;2023-08-07T08:15:42;18.00;99.90
16578;DHT22;8401;52.528;13.340;2023-08-07T08:18:08;17.90;99.90
16578;DHT22;8401;52.528;13.340;2023-08-07T08:20:34;17.90;99.90
16578;DHT22;8401;52.528;13.340;2023-08-07T08:23:00;18.00;99.90
16578;DHT22;8401;52.528;13.340;2023-08-07T08:25:25;17.90;99.90
16578;DHT22;8401;52.528;13.340;2023-08-07T08:27:51;18.00;99.90
16578;DHT22;8401;52.528;13.340;2023-08-07T08:30:17;18.10;99.90
16578;DHT22;8401;52.528;13.340;2023-08-07T08:32:43;18.00;99.90
16578;DHT22;8401;52.528;13.340;2023-08-07T08:35:09;17.90;99.90
16578;DHT22;8401;52.528;13.340;2023-08-07T08:37:35;17.80;99.90
16578;DHT22;8401;52.528;13.340;2023-08-07T08:40:01;17.70;99.90
16578;DHT22;8401;52.528;13.340;2023-08-07T08:42:27;17.80;99.90
16578;DHT22;8401;52.528;13.340;2023-08-07T08:44:55;17.80;99.90
16578;DHT22;8401;52.528;13.340;2023-08-07T08:47:21;17.90;99.90
16578;DHT22;8401;52.528;13.340;2023-08-07T08:50:11;18.10;99.90
16578;DHT22;8401;52.528;13.340;2023-08-07T08:52:41;18.40;99.90
16578;DHT22;8401;52.528;13.340;2023-08-07T08:55:10;18.70;99.90
16578;DHT22;8401;52.528;13.340;2023-08-07T08:57:37;19.00;99.90
16578;DHT22;8401;52.528;13.340;2023-08-07T09:00:05;18.90;99.90
16578;DHT22;8401;52.528;13.340;2023-08-07T09:02:41;18.70;99.90
16578;DHT22;8401;52.528;13.340;2023-08-07T09:05:07;18.40;99.90
16578;DHT22;8401;52.528;13.340;2023-08-07T09:07:33;18.40;99.90
16578;DHT22;8401;52.528;13.340;2023-08-07T09:10:02;18.70;99.90
16578;DHT22;8401;52.528;13.340;2023-08-07T09:12:31;19.20;99.90
16578;DHT22;8401;52.528;13.340;2023-08-07T09:14:58;19.20;99.90
16578;DHT22;8401;52.528;13.340;2023-08-07T09:17:31;18.90;99.90
16578;DHT22;8401;52.528;13.340;2023-08-07T09:19:59;18.40;99.90
16578;DHT22;8401;52.528;13.340;2023-08-07T09:22:26;18.10;99.90
16578;DHT22;8401;52.528;13.340;2023-08-07T09:24:51;18.50;99.90
16578;DHT22;8401;52.528;13.340;2023-08-07T09:27:17;19.00;99.90
16578;DHT22;8401;52.528;13.340;2023-08-07T09:29:43;19.30;99.90
16578;DHT22;8401;52.528;13.340;2023-08-07T09:32:12;19.20;99.90
16578;DHT22;8401;52.528;13.340;2023-08-07T09:34:39;19.30;99.90
16578;DHT22;8401;52.528;13.340;2023-08-07T09:37:07;19.80;99.90
16578;DHT22;8401;52.528;13.340;2023-08-07T09:39:32;19.70;99.90
16578;DHT22;8401;52.528;13.340;2023-08-07T09:41:58;19.50;99.90
16578;DHT22;8401;52.528;13.340;2023-08-07T09:44:24;19.20;99.90
16578;DHT22;8401;52.528;13.340;2023-08-07T09:46:49;19.10;99.90
16578;DHT22;8401;52.528;13.340;2023-08-07T09:49:15;18.80;99.90
16578;DHT22;8401;52.528;13.340;2023-08-07T09:51:47;19.00;99.90
16578;DHT22;8401;52.528;13.340;2023-08-07T09:54:13;19.10;99.90
16578;DHT22;8401;52.528;13.340;2023-08-07T09:56:41;19.10;99.90
16578;DHT22;8401;52.528;13.340;2023-08-07T09:59:08;19.10;99.90
16578;DHT22;8401;52.528;13.340;2023-08-07T10:01:37;18.80;99.90
16578;DHT22;8401;52.528;13.340;2023-08-07T10:04:05;18.80;99.90
16578;DHT22;8401;52.528;13.340;2023-08-07T10:06:30;19.10;99.90
16578;DHT22;8401;52.528;13.340;2023-08-07T10:08:56;19.20;99.90
16578;DHT22;8401;52.528;13.340;2023-08-07T10:11:23;19.30;99.90
16578;DHT22;8401;52.528;13.340;2023-08-07T10:13:49;18.90;99.90
16578;DHT22;8401;52.528;13.340;2023-08-07T10:16:15;18.90;99.90
16578;DHT22;8401;52.528;13.340;2023-08-07T10:18:41;18.60;99.90
16578;DHT22;8401;52.528;13.340;2023-08-07T10:21:07;18.70;99.90
16578;DHT22;8401;52.528;13.340;2023-08-07T10:23:36;18.90;99.90
16578;DHT22;8401;52.528;13.340;2023-08-07T10:26:06;19.00;99.90
16578;DHT22;8401;52.528;13.340;2023-08-07T10:28:33;19.00;99.90
16578;DHT22;8401;52.528;13.340;2023-08-07T10:31:03;19.10;99.90
16578;DHT22;8401;52.528;13.340;2023-08-07T10:33:30;19.30;99.90
16578;DHT22;8401;52.528;13.340;2023-08-07T10:35:57;19.40;99.90
16578;DHT22;8401;52.528;13.340;2023-08-07T10:38:25;19.50;99.90
16578;DHT22;8401;52.528;13.340;2023-08-07T10:43:26;19.70;99.90
16578;DHT22;8401;52.528;13.340;2023-08-07T10:45:53;19.90;99.90
16578;DHT22;8401;52.528;13.340;2023-08-07T10:48:20;19.40;99.90
16578;DHT22;8401;52.528;13.340;2023-08-07T10:50:57;19.60;99.90
16578;DHT22;8401;52.528;13.340;2023-08-07T10:53:33;19.50;99.90
16578;DHT22;8401;52.528;13.340;2023-08-07T10:56:03;19.40;99.90
16578;DHT22;8401;52.528;13.340;2023-08-07T10:58:34;19.60;99.90
16578;DHT22;8401;52.528;13.340;2023-08-07T11:03:56;19.30;99.90
16578;DHT22;8401;52.528;13.340;2023-08-07T11:06:23;19.10;99.90
16578;DHT22;8401;52.528;13.340;2023-08-07T11:08:50;19.00;99.90
16578;DHT22;8401;52.528;13.340;2023-08-07T11:11:16;18.70;99.90
16578;DHT22;8401;52.528;13.340;2023-08-07T11:13:42;18.30;99.90
16578;DHT22;8401;52.528;13.340;2023-08-07T11:16:08;17.90;99.90
16578;DHT22;8401;52.528;13.340;2023-08-07T11:18:34;17.50;99.90
16578;DHT22;8401;52.528;13.340;2023-08-07T11:21:01;17.50;99.90
16578;DHT22;8401;52.528;13.340;2023-08-07T11:23:28;17.50;99.90
16578;DHT22;8401;52.528;13.340;2023-08-07T11:25:54;17.50;99.90
16578;DHT22;8401;52.528;13.340;2023-08-07T11:28:21;17.50;99.90
16578;DHT22;8401;52.528;13.340;2023-08-07T11:30:52;17.30;99.90
16578;DHT22;8401;52.528;13.340;2023-08-07T11:33:18;17.60;99.90
16578;DHT22;8401;52.528;13.340;2023-08-07T11:35:45;18.00;99.90
16578;DHT22;8401;52.528;13.340;2023-08-07T11:38:11;18.00;99.90
16578;DHT22;8401;52.528;13.340;2023-08-07T11:40:37;18.00;99.90
16578;DHT22;8401;52.528;13.340;2023-08-07T11:43:03;17.90;99.90
16578;DHT22;8401;52.528;13.340;2023-08-07T11:45:29;18.00;99.90
16578;DHT22;8401;52.528;13.340;2023-08-07T11:47:55;18.20;99.90
16578;DHT22;8401;52.528;13.340;2023-08-07T11:50:27;18.70;99.90
16578;DHT22;8401;52.528;13.340;2023-08-07T11:52:53;18.80;99.90
16578;DHT22;8401;52.528;13.340;2023-08-07T11:55:19;19.10;99.90
16578;DHT22;8401;52.528;13.340;2023-08-07T11:57:47;19.40;99.90
16578;DHT22;8401;52.528;13.340;2023-08-07T12:00:13;19.40;99.90
16578;DHT22;8401;52.528;13.340;2023-08-07T12:02:43;19.90;99.90
16578;DHT22;8401;52.528;13.340;2023-08-07T12:05:11;19.90;99.90
16578;DHT22;8401;52.528;13.340;2023-08-07T12:07:37;19.30;99.90
16578;DHT22;8401;52.528;13.340;2023-08-07T12:10:10;19.30;99.90
16578;DHT22;8401;52.528;13.340;2023-08-07T12:12:37;19.30;99.90
16578;DHT22;8401;52.528;13.340;2023-08-07T12:15:07;19.40;99.90
16578;DHT22;8401;52.528;13.340;2023-08-07T12:17:33;19.30;99.90
16578;DHT22;8401;52.528;13.340;2023-08-07T12:19:59;19.30;99.90
16578;DHT22;8401;52.528;13.340;2023-08-07T12:22:27;19.20;99.90
16578;DHT22;8401;52.528;13.340;2023-08-07T12:24:56;19.20;99.90
16578;DHT22;8401;52.528;13.340;2023-08-07T12:27:21;19.40;99.90
16578;DHT22;8401;52.528;13.340;2023-08-07T12:29:47;19.60;99.90
16578;DHT22;8401;52.528;13.340;2023-08-07T12:32:13;19.70;99.90
16578;DHT22;8401;52.528;13.340;2023-08-07T12:34:38;19.80;99.90
16578;DHT22;8401;52.528;13.340;2023-08-07T12:37:06;19.70;99.90
16578;DHT22;8401;52.528;13.340;2023-08-07T12:39:31;19.60;99.90
16578;DHT22;8401;52.528;13.340;2023-08-07T12:41:57;19.60;99.90
16578;DHT22;8401;52.528;13.340;2023-08-07T12:44:23;19.30;99.90
16578;DHT22;8401;52.528;13.340;2023-08-07T12:46:49;19.10;99.90
16578;DHT22;8401;52.528;13.340;2023-08-07T12:49:15;18.90;99.90
16578;DHT22;8401;52.528;13.340;2023-08-07T12:51:41;19.00;99.90
16578;DHT22;8401;52.528;13.340;2023-08-07T12:54:06;19.00;99.90
16578;DHT22;8401;52.528;13.340;2023-08-07T12:56:32;19.00;99.90
16578;DHT22;8401;52.528;13.340;2023-08-07T12:58:57;18.90;99.90
16578;DHT22;8401;52.528;13.340;2023-08-07T13:01:23;18.70;99.90
16578;DHT22;8401;52.528;13.340;2023-08-07T13:03:49;18.80;99.90
16578;DHT22;8401;52.528;13.340;2023-08-07T13:06:14;19.10;99.90
16578;DHT22;8401;52.528;13.340;2023-08-07T13:08:40;19.40;99.90
16578;DHT22;8401;52.528;13.340;2023-08-07T13:11:06;19.80;99.90
16578;DHT22;8401;52.528;13.340;2023-08-07T13:13:32;19.90;99.90
16578;DHT22;8401;52.528;13.340;2023-08-07T13:15:57;19.80;99.90
16578;DHT22;8401;52.528;13.340;2023-08-07T13:18:24;19.90;99.90
16578;DHT22;8401;52.528;13.340;2023-08-07T13:20:50;20.10;99.90
16578;DHT22;8401;52.528;13.340;2023-08-07T13:23:15;20.10;99.90
16578;DHT22;8401;52.528;13.340;2023-08-07T13:25:41;20.00;99.90
16578;DHT22;8401;52.528;13.340;2023-08-07T13:28:06;19.90;99.90
16578;DHT22;8401;52.528;13.340;2023-08-07T13:30:35;20.10;99.90
16578;DHT22;8401;52.528;13.340;2023-08-07T13:33:01;20.20;99.90
16578;DHT22;8401;52.528;13.340;2023-08-07T13:35:27;20.40;99.90
16578;DHT22;8401;52.528;13.340;2023-08-07T13:37:52;20.20;99.90
16578;DHT22;8401;52.528;13.340;2023-08-07T13:40:18;20.10;99.90
16578;DHT22;8401;52.528;13.340;2023-08-07T13:42:45;20.10;99.90
16578;DHT22;8401;52.528;13.340;2023-08-07T13:45:12;20.20;99.90
16578;DHT22;8401;52.528;13.340;2023-08-07T13:47:39;20.10;99.90
16578;DHT22;8401;52.528;13.340;2023-08-07T13:50:05;20.40;99.90
16578;DHT22;8401;52.528;13.340;2023-08-07T13:52:35;20.50;99.90
16578;DHT22;8401;52.528;13.340;2023-08-07T13:55:01;20.40;99.90
16578;DHT22;8401;52.528;13.340;2023-08-07T13:57:26;20.30;99.90
16578;DHT22;8401;52.528;13.340;2023-08-07T13:59:52;20.40;99.90
16578;DHT22;8401;52.528;13.340;2023-08-07T14:02:19;20.40;99.90
16578;DHT22;8401;52.528;13.340;2023-08-07T14:04:45;20.50;99.90
16578;DHT22;8401;52.528;13.340;2023-08-07T14:07:11;20.30;99.90
16578;DHT22;8401;52.528;13.340;2023-08-07T14:09:36;20.40;99.90
16578;DHT22;8401;52.528;13.340;2023-08-07T14:12:03;20.30;99.90
16578;DHT22;8401;52.528;13.340;2023-08-07T14:14:28;20.50;99.90
16578;DHT22;8401;52.528;13.340;2023-08-07T14:16:54;20.50;99.90
16578;DHT22;8401;52.528;13.340;2023-08-07T14:19:23;20.40;99.90
16578;DHT22;8401;52.528;13.340;2023-08-07T14:21:49;20.10;99.90
16578;DHT22;8401;52.528;13.340;2023-08-07T14:24:15;20.20;99.90
16578;DHT22;8401;52.528;13.340;2023-08-07T14:26:42;20.10;99.90
16578;DHT22;8401;52.528;13.340;2023-08-07T14:29:08;19.70;99.90
16578;DHT22;8401;52.528;13.340;2023-08-07T14:31:34;19.70;99.90
16578;DHT22;8401;52.528;13.340;2023-08-07T14:33:59;19.70;99.90
16578;DHT22;8401;52.528;13.340;2023-08-07T14:36:25;19.50;99.90
16578;DHT22;8401;52.528;13.340;2023-08-07T14:38:51;19.60;99.90
16578;DHT22;8401;52.528;13.340;2023-08-07T14:41:17;19.80;99.90
16578;DHT22;8401;52.528;13.340;2023-08-07T14:43:44;19.90;99.90
16578;DHT22;8401;52.528;13.340;2023-08-07T14:46:11;20.10;99.90
16578;DHT22;8401;52.528;13.340;2023-08-07T14:48:38;20.10;99.90
16578;DHT22;8401;52.528;13.340;2023-08-07T14:51:03;20.20;99.90
16578;DHT22;8401;52.528;13.340;2023-08-07T14:53:29;20.10;99.90
16578;DHT22;8401;52.528;13.340;2023-08-07T14:55:55;19.90;99.90
16578;DHT22;8401;52.528;13.340;2023-08-07T14:58:21;19.80;99.90
16578;DHT22;8401;52.528;13.340;2023-08-07T15:00:46;19.60;99.90
16578;DHT22;8401;52.528;13.340;2023-08-07T15:03:12;19.50;99.90
16578;DHT22;8401;52.528;13.340;2023-08-07T15:05:37;19.30;99.90
16578;DHT22;8401;52.528;13.340;2023-08-07T15:08:03;19.40;99.90
16578;DHT22;8401;52.528;13.340;2023-08-07T15:10:29;19.50;99.90
16578;DHT22;8401;52.528;13.340;2023-08-07T15:12:55;19.60;99.90
16578;DHT22;8401;52.528;13.340;2023-08-07T15:15:21;19.70;99.90
16578;DHT22;8401;52.528;13.340;2023-08-07T15:17:47;19.70;99.90
16578;DHT22;8401;52.528;13.340;2023-08-07T15:20:12;19.80;99.90
16578;DHT22;8401;52.528;13.340;2023-08-07T15:22:38;19.70;99.90
16578;DHT22;8401;52.528;13.340;2023-08-07T15:25:04;19.80;99.90
16578;DHT22;8401;52.528;13.340;2023-08-07T15:27:30;19.60;99.90
16578;DHT22;8401;52.528;13.340;2023-08-07T15:29:56;19.60;99.90
16578;DHT22;8401;52.528;13.340;2023-08-07T15:32:21;19.50;99.90